sensor_id;sensor_type;location;lat;lon;timestamp;pressure;altitude;pressure_sealevel;temperature;humidity
48872;BME280;36154;51.674;7.824;2023-09-08T00:00:39;101071.09;;;23.35;52.20
48872;BME280;36154;51.674;7.824;2023-09-08T00:03:05;101065.31;;;23.26;52.23
48872;BME280;36154;51.674;7.824;2023-09-08T00:05:30;101066.13;;;23.29;52.34
48872;BME280;36154;51.674;7.824;2023-09-08T00:07:55;101061.88;;;23.26;52.11
48872;BME280;36154;51.674;7.824;2023-09-08T00:10:21;101053.28;;;23.24;52.22
48872;BME280;36154;51.674;7.824;2023-09-08T00:12:46;101038.03;;;23.13;52.35
48872;BME280;36154;51.674;7.824;2023-09-08T00:15:11;101059.53;;;23.18;52.32
48872;BME280;36154;51.674;7.824;2023-09-08T00:17:37;101050.09;;;23.16;52.37
48872;BME280;36154;51.674;7.824;2023-09-08T00:20:03;101056.16;;;23.15;52.50
48872;BME280;36154;51.674;7.824;2023-09-08T00:22:36;101059.69;;;23.14;52.41
48872;BME280;36154;51.674;7.824;2023-09-08T00:25:01;101042.53;;;23.08;52.31
48872;BME280;36154;51.674;7.824;2023-09-08T00:27:27;101052.09;;;23.07;52.48
48872;BME280;36154;51.674;7.824;2023-09-08T00:29:52;101056.44;;;23.07;52.57
48872;BME280;36154;51.674;7.824;2023-09-08T00:32:17;101059.03;;;23.07;52.49
48872;BME280;36154;51.674;7.824;2023-09-08T00:34:43;101052.22;;;23.03;52.35
48872;BME280;36154;51.674;7.824;2023-09-08T00:37:08;101036.03;;;22.95;52.70
48872;BME280;36154;51.674;7.824;2023-09-08T00:39:36;101043.00;;;22.94;52.51
48872;BME280;36154;51.674;7.824;2023-09-08T00:42:01;101053.44;;;22.93;52.75
48872;BME280;36154;51.674;7.824;2023-09-08T00:44:26;101043.13;;;22.89;52.92
48872;BME280;36154;51.674;7.824;2023-09-08T00:46:52;101050.03;;;22.91;52.83
48872;BME280;36154;51.674;7.824;2023-09-08T00:49:17;101041.63;;;22.82;52.78
48872;BME280;36154;51.674;7.824;2023-09-08T00:51:43;101024.53;;;22.75;52.93
48872;BME280;36154;51.674;7.824;2023-09-08T00:54:08;101034.00;;;22.76;52.96
48872;BME280;36154;51.674;7.824;2023-09-08T00:56:34;101028.22;;;22.68;52.95
48872;BME280;36154;51.674;7.824;2023-09-08T00:59:01;101045.31;;;22.75;52.84
48872;BME280;36154;51.674;7.824;2023-09-08T01:01:27;101047.03;;;22.75;53.23
48872;BME280;36154;51.674;7.824;2023-09-08T01:03:53;101048.88;;;22.71;53.25
48872;BME280;36154;51.674;7.824;2023-09-08T01:06:18;101049.06;;;22.66;53.06
48872;BME280;36154;51.674;7.824;2023-09-08T01:08:43;101045.66;;;22.63;52.92
48872;BME280;36154;51.674;7.824;2023-09-08T01:11:09;101023.56;;;22.49;53.17
48872;BME280;36154;51.674;7.824;2023-09-08T01:13:34;101052.66;;;22.61;53.20
48872;BME280;36154;51.674;7.824;2023-09-08T01:16:01;101040.78;;;22.53;53.44
48872;BME280;36154;51.674;7.824;2023-09-08T01:18:26;101033.91;;;22.51;53.16
48872;BME280;36154;51.674;7.824;2023-09-08T01:24:03;101041.63;;;22.54;53.08
48872;BME280;36154;51.674;7.824;2023-09-08T01:26:41;101047.69;;;22.55;53.38
48872;BME280;36154;51.674;7.824;2023-09-08T01:29:06;101043.47;;;22.50;53.00
48872;BME280;36154;51.674;7.824;2023-09-08T01:31:33;101032.38;;;22.45;53.17
48872;BME280;36154;51.674;7.824;2023-09-08T01:34:00;101044.34;;;22.49;53.17
48872;BME280;36154;51.674;7.824;2023-09-08T01:36:26;101034.34;;;22.37;53.19
48872;BME280;36154;51.674;7.824;2023-09-08T01:38:51;101049.53;;;22.49;53.42
48872;BME280;36154;51.674;7.824;2023-09-08T01:41:17;101035.09;;;22.41;53.24
48872;BME280;36154;51.674;7.824;2023-09-08T01:43:42;101042.88;;;22.41;53.56
48872;BME280;36154;51.674;7.824;2023-09-08T01:46:07;101048.94;;;22.41;53.64
48872;BME280;36154;51.674;7.824;2023-09-08T01:48:33;101037.94;;;22.33;53.50
48872;BME280;36154;51.674;7.824;2023-09-08T01:50:58;101043.13;;;22.33;53.52
48872;BME280;36154;51.674;7.824;2023-09-08T01:53:23;101041.44;;;22.32;53.40
48872;BME280;36154;51.674;7.824;2023-09-08T01:55:49;101044.81;;;22.34;53.51
48872;BME280;36154;51.674;7.824;2023-09-08T01:58:14;101040.53;;;22.33;53.46
48872;BME280;36154;51.674;7.824;2023-09-08T02:00:39;101036.41;;;22.26;53.42
48872;BME280;36154;51.674;7.824;2023-09-08T02:03:04;101014.97;;;22.19;53.58
48872;BME280;36154;51.674;7.824;2023-09-08T02:05:30;101027.88;;;22.22;53.63
48872;BME280;36154;51.674;7.824;2023-09-08T02:07:55;101028.78;;;22.21;53.68
48872;BME280;36154;51.674;7.824;2023-09-08T02:10:21;101029.72;;;22.19;53.41
48872;BME280;36154;51.674;7.824;2023-09-08T02:12:47;101026.31;;;22.17;53.58
48872;BME280;36154;51.674;7.824;2023-09-08T02:15:12;101022.22;;;22.09;53.55
48872;BME280;36154;51.674;7.824;2023-09-08T02:17:37;101025.66;;;22.10;53.91
48872;BME280;36154;51.674;7.824;2023-09-08T02:20:03;101017.94;;;22.05;53.75
48872;BME280;36154;51.674;7.824;2023-09-08T02:22:29;101027.50;;;22.05;53.96
48872;BME280;36154;51.674;7.824;2023-09-08T02:24:54;101031.81;;;22.04;53.96
48872;BME280;36154;51.674;7.824;2023-09-08T02:27:21;101023.19;;;22.04;53.56
48872;BME280;36154;51.674;7.824;2023-09-08T02:29:47;101024.03;;;22.04;53.82
48872;BME280;36154;51.674;7.824;2023-09-08T02:32:12;101011.34;;;21.95;53.96
48872;BME280;36154;51.674;7.824;2023-09-08T02:34:39;101020.66;;;22.01;53.85
48872;BME280;36154;51.674;7.824;2023-09-08T02:37:04;101014.69;;;21.98;53.97
48872;BME280;36154;51.674;7.824;2023-09-08T02:39:30;101009.63;;;21.94;54.14
48872;BME280;36154;51.674;7.824;2023-09-08T02:41:55;101020.91;;;21.93;54.00
48872;BME280;36154;51.674;7.824;2023-09-08T02:44:20;101018.47;;;21.87;54.07
48872;BME280;36154;51.674;7.824;2023-09-08T02:46:50;101010.84;;;21.81;54.12
48872;BME280;36154;51.674;7.824;2023-09-08T02:49:15;101006.63;;;21.78;54.19
48872;BME280;36154;51.674;7.824;2023-09-08T02:51:41;100998.16;;;21.71;54.17
48872;BME280;36154;51.674;7.824;2023-09-08T02:54:06;100998.31;;;21.65;54.27
48872;BME280;36154;51.674;7.824;2023-09-08T02:56:34;100988.19;;;21.57;54.26
48872;BME280;36154;51.674;7.824;2023-09-08T02:59:00;101019.69;;;21.75;54.21
48872;BME280;36154;51.674;7.824;2023-09-08T03:01:25;101028.13;;;21.82;54.25
48872;BME280;36154;51.674;7.824;2023-09-08T03:03:50;101001.72;;;21.67;54.37
48872;BME280;36154;51.674;7.824;2023-09-08T03:06:18;101024.69;;;21.81;54.26
48872;BME280;36154;51.674;7.824;2023-09-08T03:08:44;101025.63;;;21.78;54.31
48872;BME280;36154;51.674;7.824;2023-09-08T03:11:09;101019.63;;;21.76;54.06
48872;BME280;36154;51.674;7.824;2023-09-08T03:13:35;101025.69;;;21.75;54.21
48872;BME280;36154;51.674;7.824;2023-09-08T03:16:05;101028.38;;;21.72;54.30
48872;BME280;36154;51.674;7.824;2023-09-08T03:18:31;101017.25;;;21.69;54.30
48872;BME280;36154;51.674;7.824;2023-09-08T03:20:57;101027.56;;;21.70;54.67
48872;BME280;36154;51.674;7.824;2023-09-08T03:23:23;101023.25;;;21.71;54.29
48872;BME280;36154;51.674;7.824;2023-09-08T03:25:48;101022.31;;;21.73;54.07
48872;BME280;36154;51.674;7.824;2023-09-08T03:28:14;101020.59;;;21.72;54.16
48872;BME280;36154;51.674;7.824;2023-09-08T03:30:40;101024.88;;;21.75;54.16
48872;BME280;36154;51.674;7.824;2023-09-08T03:33:05;101002.75;;;21.62;54.29
48872;BME280;36154;51.674;7.824;2023-09-08T03:35:30;101005.31;;;21.63;54.24
48872;BME280;36154;51.674;7.824;2023-09-08T03:37:56;100996.81;;;21.58;54.07
48872;BME280;36154;51.674;7.824;2023-09-08T03:40:21;100991.63;;;21.58;53.87
48872;BME280;36154;51.674;7.824;2023-09-08T03:42:46;100991.69;;;21.55;54.38
48872;BME280;36154;51.674;7.824;2023-09-08T03:45:12;101004.53;;;21.59;54.41
48872;BME280;36154;51.674;7.824;2023-09-08T03:47:37;101000.28;;;21.57;54.08
48872;BME280;36154;51.674;7.824;2023-09-08T03:50:03;101014.72;;;21.66;54.30
48872;BME280;36154;51.674;7.824;2023-09-08T03:52:28;101015.63;;;21.65;54.19
48872;BME280;36154;51.674;7.824;2023-09-08T03:54:53;101013.88;;;21.65;54.13
48872;BME280;36154;51.674;7.824;2023-09-08T03:57:19;101021.69;;;21.64;54.07
48872;BME280;36154;51.674;7.824;2023-09-08T03:59:44;101009.00;;;21.54;54.20
48872;BME280;36154;51.674;7.824;2023-09-08T04:02:09;101010.72;;;21.54;54.23
48872;BME280;36154;51.674;7.824;2023-09-08T04:04:35;101004.78;;;21.50;54.09
48872;BME280;36154;51.674;7.824;2023-09-08T04:07:00;101000.75;;;21.40;54.46
48872;BME280;36154;51.674;7.824;2023-09-08T04:09:25;101015.91;;;21.54;54.37
48872;BME280;36154;51.674;7.824;2023-09-08T04:11:52;101015.13;;;21.52;54.17
48872;BME280;36154;51.674;7.824;2023-09-08T04:14:18;101006.66;;;21.45;54.28
48872;BME280;36154;51.674;7.824;2023-09-08T04:16:43;101014.38;;;21.47;54.20
48872;BME280;36154;51.674;7.824;2023-09-08T04:19:08;101003.25;;;21.43;54.10
48872;BME280;36154;51.674;7.824;2023-09-08T04:21:34;101011.63;;;21.53;54.11
48872;BME280;36154;51.674;7.824;2023-09-08T04:24:00;101018.38;;;21.58;54.24
48872;BME280;36154;51.674;7.824;2023-09-08T04:26:25;101010.81;;;21.52;54.08
48872;BME280;36154;51.674;7.824;2023-09-08T04:28:51;101015.03;;;21.55;53.98
48872;BME280;36154;51.674;7.824;2023-09-08T04:31:16;101012.50;;;21.52;54.01
48872;BME280;36154;51.674;7.824;2023-09-08T04:33:43;101015.91;;;21.54;54.00
48872;BME280;36154;51.674;7.824;2023-09-08T04:36:08;101013.38;;;21.52;53.95
48872;BME280;36154;51.674;7.824;2023-09-08T04:38:34;101011.63;;;21.53;54.38
48872;BME280;36154;51.674;7.824;2023-09-08T04:41:00;101017.59;;;21.56;53.77
48872;BME280;36154;51.674;7.824;2023-09-08T04:43:25;101020.94;;;21.60;54.03
48872;BME280;36154;51.674;7.824;2023-09-08T04:45:50;101020.94;;;21.60;53.82
48872;BME280;36154;51.674;7.824;2023-09-08T04:48:16;101020.94;;;21.60;53.92
48872;BME280;36154;51.674;7.824;2023-09-08T04:50:41;101013.09;;;21.63;53.73
48872;BME280;36154;51.674;7.824;2023-09-08T04:53:06;101013.03;;;21.65;53.71
48872;BME280;36154;51.674;7.824;2023-09-08T04:55:32;101022.47;;;21.67;53.62
48872;BME280;36154;51.674;7.824;2023-09-08T04:57:57;101017.38;;;21.64;53.61
48872;BME280;36154;51.674;7.824;2023-09-08T05:00:22;101019.06;;;21.65;53.52
48872;BME280;36154;51.674;7.824;2023-09-08T05:02:48;101021.69;;;21.64;53.75
48872;BME280;36154;51.674;7.824;2023-09-08T05:05:13;101006.25;;;21.59;53.61
48872;BME280;36154;51.674;7.824;2023-09-08T05:07:39;101017.38;;;21.64;53.63
48872;BME280;36154;51.674;7.824;2023-09-08T05:10:04;101012.28;;;21.61;53.62
48872;BME280;36154;51.674;7.824;2023-09-08T05:12:32;101013.31;;;21.54;54.00
48872;BME280;36154;51.674;7.824;2023-09-08T05:14:57;101026.97;;;21.60;53.72
48872;BME280;36154;51.674;7.824;2023-09-08T05:17:30;101017.53;;;21.58;53.74
48872;BME280;36154;51.674;7.824;2023-09-08T05:19:56;101028.69;;;21.62;53.78
48872;BME280;36154;51.674;7.824;2023-09-08T05:22:21;101018.38;;;21.58;53.69
48872;BME280;36154;51.674;7.824;2023-09-08T05:24:46;101015.03;;;21.55;53.70
48872;BME280;36154;51.674;7.824;2023-09-08T05:27:12;101017.53;;;21.58;53.53
48872;BME280;36154;51.674;7.824;2023-09-08T05:29:37;101019.34;;;21.56;53.83
48872;BME280;36154;51.674;7.824;2023-09-08T05:32:02;101023.63;;;21.57;53.70
48872;BME280;36154;51.674;7.824;2023-09-08T05:34:28;101015.91;;;21.54;53.84
48872;BME280;36154;51.674;7.824;2023-09-08T05:36:53;101015.13;;;21.52;53.90
48872;BME280;36154;51.674;7.824;2023-09-08T05:39:18;101009.09;;;21.51;53.74
48872;BME280;36154;51.674;7.824;2023-09-08T05:41:44;101014.16;;;21.56;54.05
48872;BME280;36154;51.674;7.824;2023-09-08T05:44:10;101007.34;;;21.52;53.97
48872;BME280;36154;51.674;7.824;2023-09-08T05:46:35;101012.50;;;21.52;54.00
48872;BME280;36154;51.674;7.824;2023-09-08T05:49:01;101007.41;;;21.49;54.07
48872;BME280;36154;51.674;7.824;2023-09-08T05:51:26;101012.59;;;21.49;54.11
48872;BME280;36154;51.674;7.824;2023-09-08T05:53:51;101014.31;;;21.50;54.13
48872;BME280;36154;51.674;7.824;2023-09-08T05:56:18;101014.38;;;21.47;54.15
48872;BME280;36154;51.674;7.824;2023-09-08T05:58:44;101016.88;;;21.51;54.09
48872;BME280;36154;51.674;7.824;2023-09-08T06:01:09;101013.50;;;21.48;54.11
48872;BME280;36154;51.674;7.824;2023-09-08T06:03:34;101023.69;;;21.54;53.93
48872;BME280;36154;51.674;7.824;2023-09-08T06:05:59;101027.13;;;21.56;54.26
48872;BME280;36154;51.674;7.824;2023-09-08T06:08:25;101015.00;;;21.56;54.19
48872;BME280;36154;51.674;7.824;2023-09-08T06:10:50;101029.53;;;21.62;54.11
48872;BME280;36154;51.674;7.824;2023-09-08T06:16:37;101018.38;;;21.58;53.81
48872;BME280;36154;51.674;7.824;2023-09-08T06:19:03;101026.97;;;21.60;54.06
48872;BME280;36154;51.674;7.824;2023-09-08T06:21:28;101009.88;;;21.53;53.97
48872;BME280;36154;51.674;7.824;2023-09-08T06:23:53;101021.94;;;21.56;54.07
48872;BME280;36154;51.674;7.824;2023-09-08T06:26:19;101014.22;;;21.53;54.29
48872;BME280;36154;51.674;7.824;2023-09-08T06:28:44;101006.50;;;21.51;54.05
48872;BME280;36154;51.674;7.824;2023-09-08T06:31:10;101025.31;;;21.58;54.29
48872;BME280;36154;51.674;7.824;2023-09-08T06:33:35;101010.84;;;21.51;54.31
48872;BME280;36154;51.674;7.824;2023-09-08T06:36:00;101003.84;;;21.53;54.28
48872;BME280;36154;51.674;7.824;2023-09-08T06:38:26;101012.50;;;21.52;54.40
48872;BME280;36154;51.674;7.824;2023-09-08T06:40:51;101027.75;;;21.64;54.38
48872;BME280;36154;51.674;7.824;2023-09-08T06:43:18;101013.19;;;21.58;54.42
48872;BME280;36154;51.674;7.824;2023-09-08T06:45:47;101012.28;;;21.61;54.47
48872;BME280;36154;51.674;7.824;2023-09-08T06:48:14;101019.91;;;21.66;54.39
48872;BME280;36154;51.674;7.824;2023-09-08T06:50:39;101033.53;;;21.74;54.27
48872;BME280;36154;51.674;7.824;2023-09-08T06:53:04;101014.56;;;21.72;54.37
48872;BME280;36154;51.674;7.824;2023-09-08T06:55:30;101033.41;;;21.78;54.39
48872;BME280;36154;51.674;7.824;2023-09-08T06:57:56;101028.13;;;21.82;54.29
48872;BME280;36154;51.674;7.824;2023-09-08T07:00:21;101035.00;;;21.84;54.22
48872;BME280;36154;51.674;7.824;2023-09-08T07:02:47;101025.47;;;21.85;54.31
48872;BME280;36154;51.674;7.824;2023-09-08T07:05:14;101015.97;;;21.84;54.23
48872;BME280;36154;51.674;7.824;2023-09-08T07:07:40;101035.47;;;21.97;54.22
48872;BME280;36154;51.674;7.824;2023-09-08T07:10:06;101024.25;;;21.96;54.22
48872;BME280;36154;51.674;7.824;2023-09-08T07:12:32;101029.28;;;22.03;53.93
48872;BME280;36154;51.674;7.824;2023-09-08T07:14:57;101030.00;;;22.09;53.86
48872;BME280;36154;51.674;7.824;2023-09-08T07:17:24;101033.31;;;22.14;54.07
48872;BME280;36154;51.674;7.824;2023-09-08T07:19:50;101019.31;;;22.19;53.98
48872;BME280;36154;51.674;7.824;2023-09-08T07:22:16;101025.22;;;22.24;53.82
48872;BME280;36154;51.674;7.824;2023-09-08T07:24:41;101013.00;;;22.27;53.49
48872;BME280;36154;51.674;7.824;2023-09-08T07:27:06;101018.03;;;22.33;53.55
48872;BME280;36154;51.674;7.824;2023-09-08T07:29:32;101023.91;;;22.39;53.62
48872;BME280;36154;51.674;7.824;2023-09-08T07:31:57;101016.03;;;22.42;53.35
48872;BME280;36154;51.674;7.824;2023-09-08T07:34:23;101020.19;;;22.47;53.66
48872;BME280;36154;51.674;7.824;2023-09-08T07:36:48;101017.44;;;22.52;53.39
48872;BME280;36154;51.674;7.824;2023-09-08T07:39:16;101015.75;;;22.51;53.47
48872;BME280;36154;51.674;7.824;2023-09-08T07:41:41;101027.56;;;22.61;53.33
48872;BME280;36154;51.674;7.824;2023-09-08T07:44:07;101025.78;;;22.63;53.09
48872;BME280;36154;51.674;7.824;2023-09-08T07:46:33;101030.81;;;22.68;53.03
48872;BME280;36154;51.674;7.824;2023-09-08T07:48:59;101029.72;;;22.75;52.86
48872;BME280;36154;51.674;7.824;2023-09-08T07:51:28;101026.09;;;22.79;52.63
48872;BME280;36154;51.674;7.824;2023-09-08T07:53:53;101030.34;;;22.83;52.95
48872;BME280;36154;51.674;7.824;2023-09-08T07:56:19;101029.34;;;22.87;52.95
48872;BME280;36154;51.674;7.824;2023-09-08T07:58:44;101029.25;;;22.91;52.76
48872;BME280;36154;51.674;7.824;2023-09-08T08:01:10;101025.81;;;22.90;52.40
48872;BME280;36154;51.674;7.824;2023-09-08T08:03:35;101019.59;;;22.94;52.54
48872;BME280;36154;51.674;7.824;2023-09-08T08:06:01;101023.78;;;23.00;52.67
48872;BME280;36154;51.674;7.824;2023-09-08T08:08:26;101015.97;;;23.00;52.40
48872;BME280;36154;51.674;7.824;2023-09-08T08:10:52;101020.06;;;23.07;52.17
48872;BME280;36154;51.674;7.824;2023-09-08T08:13:17;101015.59;;;23.11;52.02
48872;BME280;36154;51.674;7.824;2023-09-08T08:15:43;101024.25;;;23.11;52.44
48872;BME280;36154;51.674;7.824;2023-09-08T08:18:10;101028.44;;;23.15;52.10
48872;BME280;36154;51.674;7.824;2023-09-08T08:20:36;101023.25;;;23.15;52.05
48872;BME280;36154;51.674;7.824;2023-09-08T08:23:02;101019.72;;;23.16;51.77
48872;BME280;36154;51.674;7.824;2023-09-08T08:25:28;101024.72;;;23.22;52.06
48872;BME280;36154;51.674;7.824;2023-09-08T08:27:54;101016.97;;;23.21;51.80
48872;BME280;36154;51.674;7.824;2023-09-08T08:30:19;101028.03;;;23.27;51.97
48872;BME280;36154;51.674;7.824;2023-09-08T08:32:44;101029.72;;;23.29;51.51
48872;BME280;36154;51.674;7.824;2023-09-08T08:35:11;101021.00;;;23.30;51.54
48872;BME280;36154;51.674;7.824;2023-09-08T08:37:36;101014.13;;;23.29;51.78
48872;BME280;36154;51.674;7.824;2023-09-08T08:40:01;101022.69;;;23.32;51.56
48872;BME280;36154;51.674;7.824;2023-09-08T08:42:34;101012.16;;;23.35;51.56
48872;BME280;36154;51.674;7.824;2023-09-08T08:45:00;101006.09;;;23.35;51.56
48872;BME280;36154;51.674;7.824;2023-09-08T08:47:27;101013.81;;;23.38;51.74
48872;BME280;36154;51.674;7.824;2023-09-08T08:49:53;101006.78;;;23.40;51.62
48872;BME280;36154;51.674;7.824;2023-09-08T08:52:20;101016.25;;;23.42;51.31
48872;BME280;36154;51.674;7.824;2023-09-08T08:54:45;101006.78;;;23.40;51.44
48872;BME280;36154;51.674;7.824;2023-09-08T08:57:11;100999.06;;;23.38;51.50
48872;BME280;36154;51.674;7.824;2023-09-08T08:59:38;101016.97;;;23.46;51.61
48872;BME280;36154;51.674;7.824;2023-09-08T09:02:04;101006.69;;;23.43;51.46
48872;BME280;36154;51.674;7.824;2023-09-08T09:04:30;101011.69;;;23.49;51.55
48872;BME280;36154;51.674;7.824;2023-09-08T09:06:57;101011.56;;;23.52;51.16
48872;BME280;36154;51.674;7.824;2023-09-08T09:09:23;101006.44;;;23.51;51.35
48872;BME280;36154;51.674;7.824;2023-09-08T09:11:49;101010.63;;;23.55;51.11
48872;BME280;36154;51.674;7.824;2023-09-08T09:14:14;101003.88;;;23.49;51.37
48872;BME280;36154;51.674;7.824;2023-09-08T09:16:41;100992.69;;;23.47;51.00
48872;BME280;36154;51.674;7.824;2023-09-08T09:19:07;101007.13;;;23.56;51.01
48872;BME280;36154;51.674;7.824;2023-09-08T09:21:44;101002.78;;;23.56;51.18
48872;BME280;36154;51.674;7.824;2023-09-08T09:24:15;100994.09;;;23.57;51.03
48872;BME280;36154;51.674;7.824;2023-09-08T09:26:41;101009.59;;;23.60;51.21
48872;BME280;36154;51.674;7.824;2023-09-08T09:29:13;100996.75;;;23.56;51.10
48872;BME280;36154;51.674;7.824;2023-09-08T09:31:50;101002.69;;;23.59;51.21
48872;BME280;36154;51.674;7.824;2023-09-08T09:34:16;100993.25;;;23.57;50.86
48872;BME280;36154;51.674;7.824;2023-09-08T09:36:43;100999.22;;;23.59;51.38
48872;BME280;36154;51.674;7.824;2023-09-08T09:39:09;100992.28;;;23.59;51.09
48872;BME280;36154;51.674;7.824;2023-09-08T09:41:35;101000.69;;;23.66;50.87
48872;BME280;36154;51.674;7.824;2023-09-08T09:44:00;101002.47;;;23.66;51.00
48872;BME280;36154;51.674;7.824;2023-09-08T09:46:28;101003.25;;;23.68;50.74
48872;BME280;36154;51.674;7.824;2023-09-08T09:48:54;100998.00;;;23.69;51.19
48872;BME280;36154;51.674;7.824;2023-09-08T09:51:21;100998.84;;;23.70;51.09
48872;BME280;36154;51.674;7.824;2023-09-08T09:53:49;100991.09;;;23.68;50.93
48872;BME280;36154;51.674;7.824;2023-09-08T09:56:16;100989.28;;;23.70;51.14
48872;BME280;36154;51.674;7.824;2023-09-08T09:58:42;100985.03;;;23.68;51.03
48872;BME280;36154;51.674;7.824;2023-09-08T10:01:10;100990.03;;;23.74;50.56
48872;BME280;36154;51.674;7.824;2023-09-08T10:03:38;100998.66;;;23.74;50.77
48872;BME280;36154;51.674;7.824;2023-09-08T10:06:03;100987.44;;;23.74;50.95
48872;BME280;36154;51.674;7.824;2023-09-08T10:08:30;100992.56;;;23.75;50.72
48872;BME280;36154;51.674;7.824;2023-09-08T10:10:58;100983.84;;;23.76;50.82
48872;BME280;36154;51.674;7.824;2023-09-08T10:13:31;100988.22;;;23.76;50.81
48872;BME280;36154;51.674;7.824;2023-09-08T10:15:58;100984.72;;;23.77;51.28
48872;BME280;36154;51.674;7.824;2023-09-08T10:18:26;100977.03;;;23.74;50.76
48872;BME280;36154;51.674;7.824;2023-09-08T10:20:53;100976.09;;;23.75;51.11
48872;BME280;36154;51.674;7.824;2023-09-08T10:23:43;100977.75;;;23.77;51.08
48872;BME280;36154;51.674;7.824;2023-09-08T10:26:11;100978.59;;;23.78;51.07
48872;BME280;36154;51.674;7.824;2023-09-08T10:28:37;100977.69;;;23.79;50.75
48872;BME280;36154;51.674;7.824;2023-09-08T10:31:03;100980.34;;;23.77;50.96
48872;BME280;36154;51.674;7.824;2023-09-08T10:33:30;100976.97;;;23.75;51.09
48872;BME280;36154;51.674;7.824;2023-09-08T10:35:57;100981.91;;;23.81;50.75
48872;BME280;36154;51.674;7.824;2023-09-08T10:38:25;100974.13;;;23.81;50.88
48872;BME280;36154;51.674;7.824;2023-09-08T10:40:51;100981.03;;;23.83;50.70
48872;BME280;36154;51.674;7.824;2023-09-08T10:43:17;100977.59;;;23.82;50.95
48872;BME280;36154;51.674;7.824;2023-09-08T10:45:43;100979.16;;;23.86;50.72
48872;BME280;36154;51.674;7.824;2023-09-08T10:48:09;100978.38;;;23.84;51.28
48872;BME280;36154;51.674;7.824;2023-09-08T10:50:39;100975.66;;;23.87;51.16
48872;BME280;36154;51.674;7.824;2023-09-08T10:53:18;100975.66;;;23.87;51.18
48872;BME280;36154;51.674;7.824;2023-09-08T10:58:17;100975.66;;;23.87;51.37
48872;BME280;36154;51.674;7.824;2023-09-08T11:00:47;100979.03;;;23.89;51.46
48872;BME280;36154;51.674;7.824;2023-09-08T11:03:47;100984.34;;;23.86;51.36
48872;BME280;36154;51.674;7.824;2023-09-08T11:06:15;100979.03;;;23.89;51.50
48872;BME280;36154;51.674;7.824;2023-09-08T11:08:42;100985.94;;;23.90;51.74
48872;BME280;36154;51.674;7.824;2023-09-08T11:11:10;100992.00;;;23.91;51.58
48872;BME280;36154;51.674;7.824;2023-09-08T11:13:36;100979.03;;;23.89;51.38
48872;BME280;36154;51.674;7.824;2023-09-08T11:16:01;100983.28;;;23.92;51.39
48872;BME280;36154;51.674;7.824;2023-09-08T11:18:31;100978.06;;;23.92;51.18
48872;BME280;36154;51.674;7.824;2023-09-08T11:20:57;100979.81;;;23.91;51.39
48872;BME280;36154;51.674;7.824;2023-09-08T11:23:23;100971.19;;;23.91;51.30
48872;BME280;36154;51.674;7.824;2023-09-08T11:25:50;100969.38;;;23.93;51.12
48872;BME280;36154;51.674;7.824;2023-09-08T11:28:17;100965.91;;;23.92;51.48
48872;BME280;36154;51.674;7.824;2023-09-08T11:30:43;100959.78;;;23.93;51.62
48872;BME280;36154;51.674;7.824;2023-09-08T11:33:19;100955.56;;;23.91;51.27
48872;BME280;36154;51.674;7.824;2023-09-08T11:35:50;100953.69;;;23.94;51.50
48872;BME280;36154;51.674;7.824;2023-09-08T11:38:17;100960.59;;;23.95;51.67
48872;BME280;36154;51.674;7.824;2023-09-08T11:40:43;100960.50;;;23.97;51.51
48872;BME280;36154;51.674;7.824;2023-09-08T11:43:09;100954.47;;;23.96;51.43
48872;BME280;36154;51.674;7.824;2023-09-08T11:45:38;100946.72;;;23.95;51.33
48872;BME280;36154;51.674;7.824;2023-09-08T11:48:04;100933.03;;;23.90;51.34
48872;BME280;36154;51.674;7.824;2023-09-08T11:50:30;100933.75;;;23.93;51.29
48872;BME280;36154;51.674;7.824;2023-09-08T11:52:56;100929.59;;;23.89;51.24
48872;BME280;36154;51.674;7.824;2023-09-08T11:55:24;100948.25;;;24.00;51.30
48872;BME280;36154;51.674;7.824;2023-09-08T11:57:52;100939.63;;;23.98;51.17
48872;BME280;36154;51.674;7.824;2023-09-08T12:00:26;100945.66;;;24.00;51.44
48872;BME280;36154;51.674;7.824;2023-09-08T12:02:52;100942.25;;;23.98;51.18
48872;BME280;36154;51.674;7.824;2023-09-08T12:05:22;100930.22;;;23.96;51.55
48872;BME280;36154;51.674;7.824;2023-09-08T12:07:50;100933.53;;;23.99;51.19
48872;BME280;36154;51.674;7.824;2023-09-08T12:10:16;100940.44;;;24.00;51.29
48872;BME280;36154;51.674;7.824;2023-09-08T12:12:48;100926.63;;;23.98;51.22
48872;BME280;36154;51.674;7.824;2023-09-08T12:15:39;100936.03;;;24.03;51.53
48872;BME280;36154;51.674;7.824;2023-09-08T12:18:10;100937.72;;;24.04;51.71
48872;BME280;36154;51.674;7.824;2023-09-08T12:20:37;100924.16;;;23.95;51.45
48872;BME280;36154;51.674;7.824;2023-09-08T12:23:04;100932.44;;;24.05;51.34
48872;BME280;36154;51.674;7.824;2023-09-08T12:25:44;100933.38;;;24.04;51.35
48872;BME280;36154;51.674;7.824;2023-09-08T12:28:10;100942.00;;;24.05;51.90
48872;BME280;36154;51.674;7.824;2023-09-08T12:30:35;100932.59;;;24.02;51.47
48872;BME280;36154;51.674;7.824;2023-09-08T12:33:01;100936.69;;;24.08;51.33
48872;BME280;36154;51.674;7.824;2023-09-08T12:35:29;100935.00;;;24.07;51.05
48872;BME280;36154;51.674;7.824;2023-09-08T12:37:59;100933.19;;;24.09;51.61
48872;BME280;36154;51.674;7.824;2023-09-08T12:40:29;100927.13;;;24.08;51.18
48872;BME280;36154;51.674;7.824;2023-09-08T12:42:55;100917.56;;;24.09;51.13
48872;BME280;36154;51.674;7.824;2023-09-08T12:45:22;100921.91;;;24.08;51.42
48872;BME280;36154;51.674;7.824;2023-09-08T12:47:50;100909.34;;;23.97;51.35
48872;BME280;36154;51.674;7.824;2023-09-08T12:50:16;100913.31;;;24.06;50.95
48872;BME280;36154;51.674;7.824;2023-09-08T12:52:42;100910.53;;;24.11;51.02
48872;BME280;36154;51.674;7.824;2023-09-08T12:55:07;100903.69;;;24.08;51.34